Adams, Oklahoma
Current Conditions -  °F | °C
As of 4:35 AM on Monday 20 Oct 2014 (Local Time) from KLBL Reporting Station
Clear Clear  
Wind Chill:   Ceiling: Unl
Heat Index:   Visibility: 10mi
Dew Point:   Wind: 7mph
Humidity: 82%   Direction: 310°NW
Pressure: 30.06"   Gusts: NA
Location:  36.76°N, 101.08°W
Report Text: KLBL 200935Z AUTO 31006KT 10SM CLR 09/06 A3006 RMK AO1
Loading
Personal Weather Stations






























Interactive Weather Map New forecast layout! Learn more

10-Day Weather Forecast

Advertisements
Track Severe Weather on mobile